Terminal Aerodrome Forecast
Issued by NWS

Home | Current Version | Previous Version | Graphics & Text | Print | Product List | Glossary On
Versions: 1 2 3 4 5 6 7 8 9 10 11 12 13 14 15
000
FTUS43 KFGF 210531
TAFBJI
TAF
KBJI 210531Z 2106/2206 14006KT 5SM -DZ BR OVC002
     FM211000 11006KT 1SM -DZ OVC002
     FM211700 11007KT 4SM BR OVC003=

USA.gov is the U.S. government's official web portal to all federal, state and local government web resources and services.